Time;durP1;ratioP1;P1;durP2;ratioP2;P2;SDS_P1;SDS_P2;PMS_P1;PMS_P2;Temp;Humidity;BMP_temperature;BMP_pressure;BME280_temperature;BME280_humidity;BME280_pressure;Samples;Min_cycle;Max_cycle;Signal;HPM_P1;HPM_P2
2021/07/25 00:01:31;;;;;;;10.68;5.30;;;18.40;99.90;;;;;;5054215;28;20429;-75
2021/07/25 00:03:59;;;;;;;8.63;4.85;;;18.40;99.90;;;;;;5054956;28;20467;-74
2021/07/25 00:06:25;;;;;;;11.68;4.97;;;18.50;99.90;;;;;;5055067;28;20088;-77
2021/07/25 00:08:52;;;;;;;10.02;4.65;;;18.40;99.90;;;;;;5054607;28;20135;-74
2021/07/25 00:11:21;;;;;;;8.80;4.55;;;18.20;99.90;;;;;;5054099;28;20079;-75
2021/07/25 00:13:52;;;;;;;7.88;4.65;;;18.10;99.90;;;;;;5054369;28;20084;-74
2021/07/25 00:16:19;;;;;;;9.77;4.38;;;18.10;99.90;;;;;;5054198;28;20060;-76
2021/07/25 00:18:46;;;;;;;9.35;4.28;;;18.10;99.90;;;;;;5053572;28;20154;-75
2021/07/25 00:21:13;;;;;;;9.10;4.50;;;18.10;99.90;;;;;;5054086;28;20102;-75
2021/07/25 00:23:44;;;;;;;9.77;4.80;;;18.10;99.90;;;;;;5053889;28;20141;-75
2021/07/25 00:26:12;;;;;;;8.13;4.05;;;17.90;99.90;;;;;;5054058;28;20052;-75
2021/07/25 00:28:41;;;;;;;7.03;4.07;;;17.90;99.90;;;;;;5053811;28;20052;-75
2021/07/25 00:31:08;;;;;;;8.63;5.28;;;17.90;99.90;;;;;;5054240;28;20056;-75
2021/07/25 00:33:36;;;;;;;9.68;4.95;;;17.90;99.90;;;;;;5054487;28;20056;-77
2021/07/25 00:36:05;;;;;;;11.88;5.18;;;17.90;99.90;;;;;;5054555;28;20497;-75
2021/07/25 00:38:32;;;;;;;9.10;5.07;;;18.00;99.90;;;;;;5053065;28;20105;-74
2021/07/25 00:41:08;;;;;;;9.38;4.78;;;17.90;99.90;;;;;;5054363;28;20090;-74
2021/07/25 00:43:35;;;;;;;11.18;4.85;;;18.20;99.90;;;;;;5054048;28;20067;-76
2021/07/25 00:46:04;;;;;;;9.02;5.05;;;17.80;99.90;;;;;;5053851;28;20056;-75
2021/07/25 00:48:31;;;;;;;10.07;5.30;;;17.90;99.90;;;;;;5053405;28;20041;-77
2021/07/25 00:51:00;;;;;;;10.23;5.22;;;17.80;99.90;;;;;;5054538;28;20079;-77
2021/07/25 00:53:27;;;;;;;11.98;6.60;;;17.90;99.90;;;;;;5054309;28;20140;-75
2021/07/25 00:55:55;;;;;;;10.80;5.85;;;17.90;99.90;;;;;;5054800;28;20088;-75
2021/07/25 00:58:22;;;;;;;10.45;5.60;;;17.80;99.90;;;;;;5053016;28;20650;-75
2021/07/25 01:00:49;;;;;;;9.63;5.30;;;17.70;99.90;;;;;;5053095;28;20701;-76
2021/07/25 01:03:34;;;;;;;9.27;5.57;;;17.80;99.90;;;;;;5053650;28;20084;-74
2021/07/25 01:06:16;;;;;;;11.27;5.68;;;17.90;99.90;;;;;;5054227;28;20464;-75
2021/07/25 01:08:50;;;;;;;11.32;5.68;;;17.80;99.90;;;;;;5052704;28;20101;-75
2021/07/25 01:11:18;;;;;;;9.77;5.38;;;17.70;99.90;;;;;;5053714;28;20052;-75
2021/07/25 01:13:51;;;;;;;10.60;6.10;;;17.80;99.90;;;;;;5054577;28;20088;-75
2021/07/25 01:16:21;;;;;;;10.75;4.82;;;17.70;99.90;;;;;;5054325;28;20151;-76
2021/07/25 01:18:50;;;;;;;9.70;5.30;;;17.70;99.90;;;;;;5053937;28;20586;-75
2021/07/25 01:21:20;;;;;;;11.68;6.07;;;17.60;99.90;;;;;;5053572;28;20105;-75
2021/07/25 01:23:49;;;;;;;9.82;6.07;;;17.50;99.90;;;;;;5053775;28;20084;-76
2021/07/25 01:26:27;;;;;;;10.13;5.97;;;17.50;99.90;;;;;;5053075;28;20052;-75
2021/07/25 01:28:55;;;;;;;11.80;6.18;;;17.60;99.90;;;;;;5053739;28;20497;-75
2021/07/25 01:31:31;;;;;;;11.00;5.40;;;17.60;99.90;;;;;;5053815;28;20084;-75
2021/07/25 01:34:01;;;;;;;10.33;5.30;;;17.70;99.90;;;;;;5054512;28;20149;-75
2021/07/25 01:36:30;;;;;;;10.68;5.28;;;17.70;99.90;;;;;;5053496;28;20063;-77
2021/07/25 01:38:57;;;;;;;12.30;5.22;;;17.50;99.90;;;;;;5052576;28;20048;-74
2021/07/25 01:41:24;;;;;;;11.73;5.80;;;17.50;99.90;;;;;;5054033;28;20091;-74
2021/07/25 01:43:53;;;;;;;10.48;5.32;;;17.50;99.90;;;;;;5054168;28;20141;-74
2021/07/25 01:46:20;;;;;;;8.55;5.13;;;17.50;99.90;;;;;;5053550;28;20052;-74
2021/07/25 01:48:46;;;;;;;11.05;5.97;;;17.40;99.90;;;;;;5053893;28;20127;-76
2021/07/25 01:51:15;;;;;;;9.75;5.47;;;17.50;99.90;;;;;;5053261;28;20048;-75
2021/07/25 01:53:44;;;;;;;14.38;6.55;;;17.60;99.90;;;;;;5054079;28;20413;-75
2021/07/25 01:56:11;;;;;;;11.60;6.22;;;17.50;99.90;;;;;;5052600;28;20305;-74
2021/07/25 01:58:38;;;;;;;10.13;5.90;;;17.50;99.90;;;;;;5053299;28;20159;-76
2021/07/25 02:01:05;;;;;;;9.40;5.38;;;17.40;99.90;;;;;;5053828;28;20128;-74
2021/07/25 02:03:34;;;;;;;11.38;6.07;;;17.40;99.90;;;;;;5053247;28;20106;-75
2021/07/25 02:06:02;;;;;;;9.80;5.70;;;17.40;99.90;;;;;;5054711;28;20092;-75
2021/07/25 02:08:29;;;;;;;11.15;5.40;;;17.40;99.90;;;;;;5052798;28;20048;-75
2021/07/25 02:10:57;;;;;;;12.63;6.43;;;17.60;99.90;;;;;;5054620;28;20123;-77
2021/07/25 02:13:25;;;;;;;10.57;5.63;;;17.60;99.90;;;;;;5053624;28;20095;-75
2021/07/25 02:15:52;;;;;;;11.05;6.18;;;17.50;99.90;;;;;;5053923;28;20417;-76
2021/07/25 02:18:20;;;;;;;12.55;6.22;;;17.40;99.90;;;;;;5053833;28;20059;-75
2021/07/25 02:20:48;;;;;;;11.35;6.00;;;17.40;99.90;;;;;;5053831;28;20786;-77
2021/07/25 02:23:15;;;;;;;9.68;5.82;;;17.30;99.90;;;;;;5053246;28;20080;-76
2021/07/25 02:25:42;;;;;;;13.00;6.43;;;17.40;99.90;;;;;;5053869;28;20040;-75
2021/07/25 02:28:11;;;;;;;10.15;5.38;;;17.30;99.90;;;;;;5053747;28;20102;-76
2021/07/25 02:30:38;;;;;;;14.23;6.55;;;17.30;99.90;;;;;;5053999;28;20417;-75
2021/07/25 02:33:06;;;;;;;13.63;6.25;;;17.30;99.90;;;;;;5054755;28;20086;-75
2021/07/25 02:35:33;;;;;;;12.10;6.25;;;17.40;99.90;;;;;;5054598;28;20145;-76
2021/07/25 02:38:01;;;;;;;10.73;5.93;;;17.40;99.90;;;;;;5057654;28;20088;-75
2021/07/25 02:40:28;;;;;;;11.18;6.93;;;17.30;99.90;;;;;;5057449;28;20049;-75
2021/07/25 02:42:55;;;;;;;14.15;6.32;;;17.30;99.90;;;;;;5057968;28;20052;-75
2021/07/25 02:45:23;;;;;;;12.18;6.68;;;17.40;99.90;;;;;;5057722;28;20513;-77
2021/07/25 02:47:50;;;;;;;10.55;6.15;;;17.40;99.90;;;;;;5058353;28;20092;-74
2021/07/25 02:50:17;;;;;;;13.90;6.13;;;17.40;99.90;;;;;;5070027;28;20079;-76
2021/07/25 02:52:44;;;;;;;12.02;6.80;;;17.40;99.90;;;;;;5064835;28;20060;-75
2021/07/25 02:55:12;;;;;;;16.95;6.40;;;17.40;99.90;;;;;;5057914;28;20501;-75
2021/07/25 02:57:39;;;;;;;12.25;6.70;;;17.40;99.90;;;;;;5058537;28;20682;-75
2021/07/25 03:00:08;;;;;;;11.25;6.90;;;17.30;99.90;;;;;;5059107;28;20102;-75
2021/07/25 03:02:37;;;;;;;12.88;6.57;;;17.30;99.90;;;;;;5059080;28;20056;-75
2021/07/25 03:05:05;;;;;;;13.52;7.05;;;17.30;99.90;;;;;;5057995;28;20060;-75
2021/07/25 03:07:32;;;;;;;11.32;6.30;;;17.30;99.90;;;;;;5056585;28;20080;-75
2021/07/25 03:09:59;;;;;;;12.55;6.45;;;17.30;99.90;;;;;;5057751;28;20052;-75
2021/07/25 03:12:29;;;;;;;12.48;6.63;;;17.30;99.90;;;;;;5057684;28;20135;-75
2021/07/25 03:14:56;;;;;;;10.82;6.63;;;17.20;99.90;;;;;;5058062;28;20106;-75
2021/07/25 03:17:23;;;;;;;10.88;6.40;;;17.30;99.90;;;;;;5057676;28;20063;-75
2021/07/25 03:19:51;;;;;;;10.38;6.43;;;17.30;99.90;;;;;;5057310;28;20565;-77
2021/07/25 03:22:20;;;;;;;11.43;6.57;;;17.40;99.90;;;;;;5057878;28;20525;-76
2021/07/25 03:24:47;;;;;;;14.40;7.53;;;17.30;99.90;;;;;;5057748;28;20056;-76
2021/07/25 03:27:14;;;;;;;16.13;6.82;;;17.30;99.90;;;;;;5058042;28;20040;-75
2021/07/25 03:29:41;;;;;;;11.38;6.93;;;17.30;99.90;;;;;;5057994;28;20060;-75
2021/07/25 03:32:08;;;;;;;14.05;6.82;;;17.30;99.90;;;;;;5057896;28;20118;-74
2021/07/25 03:34:35;;;;;;;13.77;8.10;;;17.30;99.90;;;;;;5057350;28;20080;-74
2021/07/25 03:37:04;;;;;;;12.00;6.63;;;17.30;99.90;;;;;;5058474;28;20514;-75
2021/07/25 03:39:31;;;;;;;11.60;7.03;;;17.30;99.90;;;;;;5057704;28;20098;-74
2021/07/25 03:41:58;;;;;;;16.20;6.63;;;17.30;99.90;;;;;;5057836;28;20067;-76
2021/07/25 03:44:25;;;;;;;11.73;6.50;;;17.30;99.90;;;;;;5058678;28;20087;-74
2021/07/25 03:46:52;;;;;;;13.07;6.75;;;17.30;99.90;;;;;;5058781;28;20041;-74
2021/07/25 03:49:19;;;;;;;12.55;7.22;;;17.40;99.90;;;;;;5057368;28;20092;-75
2021/07/25 03:51:46;;;;;;;12.48;7.22;;;17.50;99.90;;;;;;5058184;28;20098;-75
2021/07/25 03:54:15;;;;;;;12.80;7.75;;;17.50;99.90;;;;;;5057603;28;20989;-76
2021/07/25 03:56:42;;;;;;;13.00;7.43;;;17.60;99.90;;;;;;5057890;28;20504;-76
2021/07/25 03:59:09;;;;;;;12.75;7.60;;;17.60;99.90;;;;;;5057588;28;20125;-77
2021/07/25 04:01:36;;;;;;;11.63;7.43;;;17.70;99.90;;;;;;5057903;28;20062;-75
2021/07/25 04:04:03;;;;;;;12.85;7.45;;;17.80;99.90;;;;;;5058490;28;20331;-75
2021/07/25 04:06:31;;;;;;;11.52;7.30;;;17.80;99.90;;;;;;5058322;28;20076;-75
2021/07/25 04:08:58;;;;;;;13.70;7.82;;;17.80;99.90;;;;;;5058033;28;20264;-76
2021/07/25 04:11:26;;;;;;;15.65;8.13;;;17.90;99.90;;;;;;5058218;28;20048;-77
2021/07/25 04:13:53;;;;;;;13.98;7.78;;;18.00;99.90;;;;;;5058387;28;20048;-76
2021/07/25 04:16:20;;;;;;;15.15;8.07;;;18.00;99.90;;;;;;5058009;28;20582;-77
2021/07/25 04:18:47;;;;;;;17.20;7.68;;;18.10;99.90;;;;;;5058201;28;20083;-76
2021/07/25 04:21:14;;;;;;;12.70;7.68;;;18.10;99.90;;;;;;5059313;28;20252;-77
2021/07/25 04:23:42;;;;;;;13.88;7.10;;;18.10;99.90;;;;;;5057402;28;20048;-77
2021/07/25 04:26:10;;;;;;;14.13;7.40;;;18.20;99.90;;;;;;5055918;28;20501;-76
2021/07/25 04:28:39;;;;;;;15.82;8.10;;;18.20;99.90;;;;;;5054933;28;20080;-75
2021/07/25 04:31:07;;;;;;;14.30;7.53;;;18.20;99.90;;;;;;5055482;28;20052;-75
2021/07/25 04:33:35;;;;;;;18.33;7.78;;;18.20;99.90;;;;;;5055273;28;20212;-76
2021/07/25 04:36:10;;;;;;;13.30;7.95;;;18.30;99.90;;;;;;5055989;28;20052;-76
2021/07/25 04:38:38;;;;;;;13.40;7.20;;;18.30;99.90;;;;;;5055759;28;20044;-75
2021/07/25 04:41:08;;;;;;;14.05;6.93;;;18.30;99.90;;;;;;5055405;28;20131;-75
2021/07/25 04:43:39;;;;;;;13.50;7.57;;;18.40;99.90;;;;;;5054241;28;20067;-77
2021/07/25 04:46:11;;;;;;;12.95;7.72;;;18.30;99.90;;;;;;5055741;28;20102;-75
2021/07/25 04:48:46;;;;;;;12.02;7.90;;;18.40;99.90;;;;;;5054348;28;20076;-75
2021/07/25 04:51:14;;;;;;;14.13;7.60;;;18.40;99.90;;;;;;5054608;28;20045;-76
2021/07/25 04:53:43;;;;;;;14.38;7.80;;;18.50;99.90;;;;;;5054247;28;20141;-75
2021/07/25 04:56:12;;;;;;;16.52;8.13;;;18.50;99.90;;;;;;5054545;28;20049;-76
2021/07/25 04:58:47;;;;;;;16.48;8.73;;;18.50;99.90;;;;;;5054635;28;20080;-75
2021/07/25 05:01:18;;;;;;;18.15;8.05;;;18.50;99.90;;;;;;5053683;28;20125;-76
2021/07/25 05:03:46;;;;;;;16.83;9.40;;;18.60;99.90;;;;;;5055093;28;20483;-75
2021/07/25 05:06:15;;;;;;;16.17;8.23;;;18.60;99.90;;;;;;5053799;28;20492;-76
2021/07/25 05:08:42;;;;;;;13.95;8.75;;;18.70;99.90;;;;;;5055047;28;20402;-75
2021/07/25 05:11:15;;;;;;;14.85;8.75;;;18.70;99.90;;;;;;5056222;28;20497;-75
2021/07/25 05:13:46;;;;;;;14.40;8.35;;;18.80;99.90;;;;;;5054916;28;20090;-76
2021/07/25 05:16:21;;;;;;;15.07;8.68;;;18.80;99.90;;;;;;5055094;28;20056;-75
2021/07/25 05:19:00;;;;;;;12.75;8.07;;;18.90;99.90;;;;;;5054290;28;20048;-75
2021/07/25 05:21:35;;;;;;;14.13;7.68;;;18.90;99.90;;;;;;5055130;28;20505;-76
2021/07/25 05:24:06;;;;;;;15.85;8.65;;;18.90;99.90;;;;;;5055360;28;20053;-76
2021/07/25 05:26:37;;;;;;;16.33;8.25;;;19.00;99.90;;;;;;5055100;28;20390;-77
2021/07/25 05:29:05;;;;;;;16.42;8.90;;;19.00;99.90;;;;;;5053358;28;20102;-76
2021/07/25 05:31:35;;;;;;;15.32;9.05;;;19.00;99.90;;;;;;5054378;28;20622;-77
2021/07/25 05:34:03;;;;;;;12.73;8.23;;;19.10;99.90;;;;;;5054319;28;20530;-77
2021/07/25 05:36:30;;;;;;;14.20;8.85;;;19.10;99.90;;;;;;5053389;28;20049;-77
2021/07/25 05:38:57;;;;;;;15.60;8.20;;;19.10;99.90;;;;;;5055414;28;20053;-75
2021/07/25 05:41:24;;;;;;;17.02;8.43;;;19.10;99.90;;;;;;5055072;28;20092;-76
2021/07/25 05:43:51;;;;;;;15.30;7.90;;;19.10;99.90;;;;;;5053946;28;20106;-75
2021/07/25 05:46:20;;;;;;;15.48;9.15;;;19.20;99.90;;;;;;5054343;28;20166;-77
2021/07/25 05:48:47;;;;;;;15.63;8.30;;;19.30;99.90;;;;;;5055044;28;20052;-76
2021/07/25 05:51:14;;;;;;;17.55;8.40;;;19.30;99.90;;;;;;5055311;28;20080;-76
2021/07/25 05:53:41;;;;;;;17.45;7.82;;;19.30;99.90;;;;;;5054758;28;20110;-75
2021/07/25 05:56:09;;;;;;;16.63;8.00;;;19.40;99.90;;;;;;5054564;28;20135;-77
2021/07/25 05:58:36;;;;;;;15.73;8.65;;;19.40;99.90;;;;;;5054096;28;20488;-75
2021/07/25 06:01:03;;;;;;;14.15;7.65;;;19.50;99.90;;;;;;5054529;28;20049;-76
2021/07/25 06:03:32;;;;;;;14.93;7.95;;;19.60;99.90;;;;;;5055029;28;20080;-75
2021/07/25 06:05:59;;;;;;;15.70;8.13;;;19.80;99.90;;;;;;5055266;28;20102;-76
2021/07/25 06:08:26;;;;;;;13.23;7.95;;;19.80;99.90;;;;;;5053966;28;20098;-75
2021/07/25 06:10:52;;;;;;;16.40;7.45;;;19.90;99.90;;;;;;5055089;28;20044;-75
2021/07/25 06:13:19;;;;;;;16.60;7.47;;;20.10;99.90;;;;;;5058003;28;20111;-74
2021/07/25 06:15:48;;;;;;;12.55;7.78;;;20.20;99.90;;;;;;5057475;28;20056;-76
2021/07/25 06:18:15;;;;;;;12.43;6.97;;;20.30;99.90;;;;;;5056865;28;20068;-75
2021/07/25 06:20:44;;;;;;;13.30;7.63;;;20.30;99.90;;;;;;5057994;28;20076;-77
2021/07/25 06:23:14;;;;;;;13.82;7.45;;;20.40;99.90;;;;;;5057292;28;20049;-77
2021/07/25 06:25:42;;;;;;;13.23;6.97;;;20.40;99.90;;;;;;5057947;28;20107;-77
2021/07/25 06:28:09;;;;;;;13.80;6.88;;;20.60;99.90;;;;;;5057532;28;20088;-75
2021/07/25 06:30:36;;;;;;;11.07;6.47;;;20.60;99.90;;;;;;5058169;28;20135;-75
2021/07/25 06:33:06;;;;;;;14.25;7.20;;;20.60;99.90;;;;;;5058413;28;20141;-74
2021/07/25 06:35:34;;;;;;;13.75;6.95;;;20.60;99.90;;;;;;5059567;28;20088;-75
2021/07/25 06:38:05;;;;;;;14.80;7.03;;;20.60;99.90;;;;;;5057648;28;20060;-75
2021/07/25 06:40:32;;;;;;;11.93;6.55;;;20.60;99.90;;;;;;5059638;28;20056;-75
2021/07/25 06:43:00;;;;;;;13.77;7.35;;;20.60;99.90;;;;;;5059108;28;20044;-75
2021/07/25 06:45:28;;;;;;;13.50;7.55;;;20.70;99.90;;;;;;5058368;28;20524;-76
2021/07/25 06:47:55;;;;;;;13.63;7.10;;;20.70;99.90;;;;;;5057529;28;20135;-76
2021/07/25 06:50:24;;;;;;;19.42;8.52;;;20.60;99.90;;;;;;5057812;28;20474;-76
2021/07/25 06:52:53;;;;;;;15.60;7.30;;;20.60;99.90;;;;;;5058320;28;20057;-78
2021/07/25 06:55:22;;;;;;;15.88;7.90;;;20.50;99.90;;;;;;5058711;28;20543;-76
2021/07/25 06:57:49;;;;;;;18.17;7.15;;;20.50;99.90;;;;;;5059265;28;20048;-75
2021/07/25 07:00:17;;;;;;;15.50;8.05;;;20.60;99.90;;;;;;5060852;28;20107;-77
2021/07/25 07:02:51;;;;;;;11.77;6.90;;;20.60;99.90;;;;;;5060718;28;20098;-76
2021/07/25 07:05:20;;;;;;;13.40;7.65;;;20.80;99.90;;;;;;5060152;28;20131;-76
2021/07/25 07:07:48;;;;;;;13.68;8.13;;;20.70;99.90;;;;;;5061250;28;20064;-75
2021/07/25 07:10:15;;;;;;;13.50;7.68;;;20.80;99.90;;;;;;5060868;28;20084;-76
2021/07/25 07:12:44;;;;;;;14.43;8.30;;;20.90;99.90;;;;;;5059898;28;20080;-75
2021/07/25 07:15:13;;;;;;;16.10;8.27;;;20.80;99.90;;;;;;5061172;28;20105;-76
2021/07/25 07:17:40;;;;;;;14.98;7.85;;;20.80;99.90;;;;;;5060561;28;20048;-76
2021/07/25 07:20:10;;;;;;;17.52;8.65;;;20.80;99.90;;;;;;5060473;28;20102;-76
2021/07/25 07:22:37;;;;;;;13.43;7.55;;;21.00;99.90;;;;;;5059780;28;20574;-74
2021/07/25 07:25:06;;;;;;;14.57;7.78;;;21.20;99.90;;;;;;5060492;28;20105;-75
2021/07/25 07:27:35;;;;;;;16.23;8.38;;;21.20;99.90;;;;;;5059785;28;20083;-79
2021/07/25 07:30:05;;;;;;;16.88;7.60;;;21.30;99.90;;;;;;5059917;28;20132;-77
2021/07/25 07:32:31;;;;;;;15.13;7.93;;;21.30;99.90;;;;;;5060787;28;20044;-75
2021/07/25 07:34:58;;;;;;;11.23;7.35;;;21.60;99.90;;;;;;5060862;28;20087;-75
2021/07/25 07:37:25;;;;;;;15.68;8.20;;;21.60;99.90;;;;;;5060756;28;20079;-77
2021/07/25 07:39:52;;;;;;;18.00;8.02;;;21.70;99.90;;;;;;5062417;28;20091;-76
2021/07/25 07:42:19;;;;;;;14.80;7.70;;;21.80;99.90;;;;;;5061851;28;20135;-74
2021/07/25 07:44:46;;;;;;;14.05;7.93;;;22.00;99.90;;;;;;5062854;28;20082;-76
2021/07/25 07:47:15;;;;;;;11.93;7.25;;;22.10;99.90;;;;;;5063167;28;20121;-75
2021/07/25 07:49:42;;;;;;;12.68;7.32;;;22.20;99.90;;;;;;5063012;28;20102;-75
2021/07/25 07:52:09;;;;;;;13.73;7.70;;;22.20;99.90;;;;;;5063300;28;20113;-75
2021/07/25 07:54:37;;;;;;;14.13;8.23;;;22.30;99.90;;;;;;5063128;28;20099;-75
2021/07/25 07:57:04;;;;;;;14.63;8.40;;;22.50;99.90;;;;;;5062915;28;20072;-76
2021/07/25 07:59:31;;;;;;;14.23;7.95;;;22.50;99.90;;;;;;5061822;28;20466;-74
2021/07/25 08:01:59;;;;;;;17.20;8.13;;;22.50;99.90;;;;;;5062666;28;20428;-75
2021/07/25 08:04:27;;;;;;;13.77;8.52;;;22.70;99.90;;;;;;5061245;28;20048;-77
2021/07/25 08:06:54;;;;;;;12.30;7.93;;;22.60;99.90;;;;;;5060413;28;20048;-76
2021/07/25 08:09:21;;;;;;;17.80;8.48;;;22.50;99.90;;;;;;5059156;28;20595;-75
2021/07/25 08:11:48;;;;;;;14.27;7.25;;;22.50;99.90;;;;;;5060644;28;20052;-75
2021/07/25 08:14:19;;;;;;;12.70;7.93;;;22.90;99.90;;;;;;5060533;28;20071;-75
2021/07/25 08:16:46;;;;;;;12.93;8.20;;;22.90;99.90;;;;;;5059605;28;20412;-75
2021/07/25 08:19:14;;;;;;;16.63;8.63;;;23.00;99.90;;;;;;5058643;28;20161;-76
2021/07/25 08:21:43;;;;;;;13.45;8.65;;;23.10;99.90;;;;;;5060040;28;20094;-76
2021/07/25 08:24:11;;;;;;;14.95;9.35;;;23.20;99.90;;;;;;5060840;28;20505;-74
2021/07/25 08:26:38;;;;;;;14.38;8.18;;;23.20;99.90;;;;;;5061585;28;20049;-75
2021/07/25 08:29:05;;;;;;;14.93;8.85;;;23.30;99.90;;;;;;5061286;28;20053;-75
2021/07/25 08:31:32;;;;;;;14.80;8.23;;;23.50;99.90;;;;;;5062806;28;20084;-76
2021/07/25 08:33:59;;;;;;;14.68;9.02;;;23.80;99.90;;;;;;5063878;28;20061;-75
2021/07/25 08:36:26;;;;;;;15.20;8.65;;;23.80;99.90;;;;;;5060480;28;20232;-76
2021/07/25 08:38:55;;;;;;;14.02;7.90;;;23.90;99.90;;;;;;5060952;28;20553;-75
2021/07/25 08:41:41;;;;;;;13.52;8.80;;;23.70;99.90;;;;;;5060649;28;20075;-77
2021/07/25 08:44:30;;;;;;;14.98;8.85;;;23.80;99.90;;;;;;5060284;28;20394;-76
2021/07/25 08:46:57;;;;;;;14.52;8.38;;;23.80;99.90;;;;;;5061610;28;20375;-76
2021/07/25 08:49:35;;;;;;;15.55;8.30;;;24.00;99.90;;;;;;5064598;28;20455;-75
2021/07/25 08:52:05;;;;;;;14.18;8.95;;;24.20;99.90;;;;;;5067465;28;20139;-76
2021/07/25 08:54:37;;;;;;;14.38;8.73;;;24.50;99.90;;;;;;5066248;28;20098;-76
2021/07/25 08:57:06;;;;;;;13.70;8.15;;;25.10;99.90;;;;;;5065787;28;20075;-76
2021/07/25 08:59:35;;;;;;;14.77;8.75;;;25.30;99.90;;;;;;5064941;28;20083;-75
2021/07/25 09:02:02;;;;;;;15.13;9.18;;;25.30;99.90;;;;;;5065553;28;20056;-76
2021/07/25 09:04:30;;;;;;;16.20;9.38;;;25.30;99.90;;;;;;5065364;28;20196;-76
2021/07/25 09:07:02;;;;;;;15.65;8.43;;;25.30;99.90;;;;;;5064883;28;20048;-76
2021/07/25 09:09:29;;;;;;;12.52;8.40;;;25.30;99.90;;;;;;5064545;28;20075;-75
2021/07/25 09:11:57;;;;;;;13.70;8.73;;;25.40;99.90;;;;;;5064166;28;20088;-75
2021/07/25 09:14:24;;;;;;;12.32;8.10;;;26.10;99.90;;;;;;5062742;28;20161;-76
2021/07/25 09:16:51;;;;;;;11.50;8.18;;;27.40;99.90;;;;;;5061813;28;20088;-75
2021/07/25 09:19:18;;;;;;;15.15;8.27;;;28.40;99.90;;;;;;5061509;28;20052;-75
2021/07/25 09:21:47;;;;;;;12.70;8.27;;;28.90;99.90;;;;;;5061393;28;20147;-75
2021/07/25 09:24:20;;;;;;;12.07;8.52;;;29.90;99.90;;;;;;5062052;28;20056;-75
2021/07/25 09:26:57;;;;;;;12.68;8.30;;;30.20;99.90;;;;;;5061942;28;20509;-77
2021/07/25 09:29:26;;;;;;;12.52;7.93;;;30.50;99.90;;;;;;5061951;28;20041;-76
2021/07/25 09:32:11;;;;;;;10.90;7.93;;;30.90;99.90;;;;;;5061913;28;20129;-76
2021/07/25 09:34:39;;;;;;;14.38;7.72;;;30.60;99.90;;;;;;5060608;28;20509;-78
2021/07/25 09:37:10;;;;;;;14.73;9.02;;;30.50;99.90;;;;;;5060718;28;20462;-76
2021/07/25 09:39:39;;;;;;;10.63;7.68;;;29.80;99.90;;;;;;5061434;28;20094;-75
2021/07/25 09:42:10;;;;;;;12.05;8.52;;;30.60;99.90;;;;;;5061755;28;20087;-76
2021/07/25 09:44:51;;;;;;;9.57;7.20;;;31.50;99.90;;;;;;5060751;28;20094;-77
2021/07/25 09:47:26;;;;;;;13.10;8.70;;;32.50;99.90;;;;;;5059679;28;20139;-76
2021/07/25 09:49:53;;;;;;;17.58;8.75;;;32.60;99.90;;;;;;5060218;28;20444;-77
2021/07/25 09:52:28;;;;;;;17.98;8.57;;;32.70;99.90;;;;;;5060038;28;20048;-76
2021/07/25 09:54:56;;;;;;;12.30;8.45;;;32.10;99.90;;;;;;5060676;28;20072;-76
2021/07/25 09:57:26;;;;;;;12.73;7.45;;;32.30;99.90;;;;;;5060417;28;20060;-77
2021/07/25 09:59:53;;;;;;;12.68;7.95;;;32.50;99.90;;;;;;5061115;28;20053;-76
2021/07/25 10:02:34;;;;;;;10.90;7.70;;;32.60;99.90;;;;;;5061558;28;20053;-76
2021/07/25 10:05:12;;;;;;;12.32;7.18;;;32.90;99.90;;;;;;5061174;28;20048;-76
2021/07/25 10:07:40;;;;;;;11.55;7.00;;;32.10;99.90;;;;;;5060203;28;20505;-76
2021/07/25 10:10:10;;;;;;;10.85;7.75;;;31.70;99.90;;;;;;5059752;28;20149;-77
2021/07/25 10:12:39;;;;;;;11.23;7.22;;;31.70;99.90;;;;;;5059881;28;20074;-76
2021/07/25 10:15:09;;;;;;;10.75;7.18;;;31.60;99.90;;;;;;5060338;28;20095;-77
2021/07/25 10:17:37;;;;;;;12.00;6.88;;;32.00;99.90;;;;;;5060114;28;20045;-76
2021/07/25 10:20:06;;;;;;;13.13;7.28;;;31.50;99.90;;;;;;5060310;28;20505;-76
2021/07/25 10:22:35;;;;;;;12.45;7.50;;;31.70;99.90;;;;;;5060131;28;20059;-78
2021/07/25 10:25:04;;;;;;;12.27;7.93;;;31.40;99.90;;;;;;5059787;28;20045;-76
2021/07/25 10:27:31;;;;;;;15.85;8.13;;;31.30;99.90;;;;;;5059526;28;20060;-76
2021/07/25 10:30:04;;;;;;;11.18;6.78;;;31.50;99.90;;;;;;5060018;28;20072;-75
2021/07/25 10:32:33;;;;;;;10.90;6.78;;;32.20;99.90;;;;;;5060719;28;20048;-76
2021/07/25 10:35:05;;;;;;;11.75;6.93;;;32.40;99.90;;;;;;5059839;28;20497;-76
2021/07/25 10:37:36;;;;;;;11.57;6.68;;;31.10;99.90;;;;;;5058898;28;20654;-78
2021/07/25 10:40:05;;;;;;;9.15;6.47;;;30.80;99.90;;;;;;5059457;28;20060;-76
2021/07/25 10:42:36;;;;;;;10.40;6.35;;;31.90;99.90;;;;;;5059535;28;20052;-76
2021/07/25 10:45:05;;;;;;;12.63;7.25;;;32.10;99.90;;;;;;5059555;28;20092;-77
2021/07/25 10:47:33;;;;;;;11.93;6.25;;;33.00;99.90;;;;;;5062590;28;20123;-75
2021/07/25 10:50:05;;;;;;;8.90;6.53;;;33.20;99.90;;;;;;5059408;28;20131;-77
2021/07/25 10:53:00;;;;;;;16.73;7.00;;;33.90;99.90;;;;;;5060294;28;20087;-76
2021/07/25 10:55:51;;;;;;;14.18;7.35;;;34.10;99.90;;;;;;5056976;28;20052;-78
2021/07/25 10:58:19;;;;;;;10.05;6.93;;;33.70;99.90;;;;;;5060681;28;20052;-77
2021/07/25 11:00:52;;;;;;;9.88;6.55;;;32.70;99.90;;;;;;5061922;28;20586;-75
2021/07/25 11:03:52;;;;;;;12.27;6.57;;;32.20;99.90;;;;;;5062858;28;20185;-75
2021/07/25 11:06:20;;;;;;;12.50;7.15;;;31.90;99.90;;;;;;5063293;28;20048;-75
2021/07/25 11:08:51;;;;;;;10.90;6.95;;;31.10;99.90;;;;;;5062537;28;20133;-77
2021/07/25 11:11:52;;;;;;;10.18;6.50;;;31.00;99.90;;;;;;5062774;28;20059;-76
2021/07/25 11:14:55;;;;;;;11.45;7.22;;;31.10;99.90;;;;;;5062835;28;20044;-75
2021/07/25 11:17:53;;;;;;;8.95;6.88;;;31.60;99.90;;;;;;5057531;28;20055;-75
2021/07/25 11:20:44;;;;;;;12.20;7.00;;;31.10;99.90;;;;;;5063323;28;20146;-75
2021/07/25 11:23:33;;;;;;;11.07;6.90;;;31.00;99.90;;;;;;5062125;28;20099;-78
2021/07/25 11:26:30;;;;;;;9.38;6.28;;;30.60;99.90;;;;;;5063084;28;20052;-77
2021/07/25 11:28:58;;;;;;;10.43;6.30;;;31.40;99.90;;;;;;5059345;28;20053;-76
2021/07/25 11:31:40;;;;;;;9.40;6.65;;;31.00;99.90;;;;;;5058298;28;20080;-76
2021/07/25 11:34:11;;;;;;;13.20;7.40;;;30.30;99.90;;;;;;5060344;28;20056;-77
2021/07/25 11:36:38;;;;;;;11.57;6.85;;;29.90;99.90;;;;;;5060269;28;20052;-76
2021/07/25 11:39:08;;;;;;;11.48;6.78;;;29.80;99.90;;;;;;5057468;28;20072;-78
2021/07/25 11:41:36;;;;;;;13.60;6.97;;;29.10;99.90;;;;;;5057992;28;20510;-78
2021/07/25 11:44:05;;;;;;;14.38;6.85;;;29.50;99.90;;;;;;5057574;28;20052;-76
2021/07/25 11:46:34;;;;;;;11.95;6.90;;;28.70;99.90;;;;;;5058612;28;20154;-76
2021/07/25 11:49:03;;;;;;;10.63;6.10;;;28.60;99.90;;;;;;5057787;28;20075;-76
2021/07/25 11:51:32;;;;;;;11.27;6.97;;;28.80;99.90;;;;;;5057892;28;20144;-76
2021/07/25 11:53:59;;;;;;;11.95;7.22;;;28.90;99.90;;;;;;5059015;28;20437;-76
2021/07/25 11:56:26;;;;;;;14.02;7.38;;;28.60;99.90;;;;;;5062920;28;20053;-74
2021/07/25 11:59:01;;;;;;;10.32;6.63;;;28.90;99.90;;;;;;5061000;28;20102;-79
2021/07/25 12:01:28;;;;;;;10.43;6.63;;;29.80;99.90;;;;;;5058426;28;20637;-76
2021/07/25 12:03:55;;;;;;;10.63;6.20;;;29.50;99.90;;;;;;5058884;28;20084;-74
2021/07/25 12:06:22;;;;;;;11.35;6.72;;;29.40;99.90;;;;;;5058741;28;20105;-76
2021/07/25 12:09:08;;;;;;;11.00;7.40;;;29.00;99.90;;;;;;5058878;28;20153;-75
2021/07/25 12:11:36;;;;;;;10.32;6.65;;;28.90;99.90;;;;;;5058890;28;20044;-75
2021/07/25 12:14:03;;;;;;;9.73;6.63;;;28.70;99.90;;;;;;5059552;28;20126;-77
2021/07/25 12:16:47;;;;;;;10.40;7.18;;;28.70;99.90;;;;;;5059431;28;20044;-75
2021/07/25 12:19:15;;;;;;;12.75;7.03;;;28.80;99.90;;;;;;5059423;28;20106;-76
2021/07/25 12:21:43;;;;;;;11.02;6.72;;;28.90;99.90;;;;;;5059374;28;20041;-77
2021/07/25 12:24:27;;;;;;;12.52;6.40;;;29.00;99.90;;;;;;5057812;28;20048;-77
2021/07/25 12:26:54;;;;;;;10.48;6.15;;;29.00;99.90;;;;;;5058904;28;20114;-76
2021/07/25 12:29:41;;;;;;;9.93;6.85;;;29.20;99.90;;;;;;5055281;28;20459;-75
2021/07/25 12:32:35;;;;;;;10.52;6.70;;;29.00;99.90;;;;;;5054959;28;20095;-75
2021/07/25 12:35:22;;;;;;;9.90;5.70;;;28.50;99.90;;;;;;5007864;28;20109;-75
2021/07/25 12:37:51;;;;;;;13.40;6.22;;;28.80;99.90;;;;;;5054368;28;20121;-75
2021/07/25 12:40:22;;;;;;;11.27;6.97;;;28.60;99.90;;;;;;5054861;28;20106;-75
2021/07/25 12:42:51;;;;;;;12.73;6.80;;;28.50;99.90;;;;;;5054328;28;20139;-75
2021/07/25 12:45:40;;;;;;;10.77;6.45;;;28.50;99.90;;;;;;5053945;28;20517;-75
2021/07/25 12:48:15;;;;;;;11.13;6.85;;;28.70;99.90;;;;;;5040807;28;20044;-76
2021/07/25 12:50:55;;;;;;;10.90;6.50;;;28.70;99.90;;;;;;5055901;28;20048;-75
2021/07/25 12:53:30;;;;;;;10.70;6.28;;;28.70;99.90;;;;;;5055440;28;20501;-75